createdAt,value
2018-12-03T00:01:33.390Z,23.75
2018-12-03T00:02:07.486Z,19.15
2018-12-03T00:02:42.260Z,21.57
2018-12-03T00:03:16.373Z,22.70
2018-12-03T00:03:51.041Z,22.87
2018-12-03T00:04:25.469Z,24.72
2018-12-03T00:04:59.779Z,22.20
2018-12-03T00:05:33.870Z,24.55
2018-12-03T00:06:08.324Z,23.07
2018-12-03T00:06:42.767Z,24.80
2018-12-03T00:07:16.980Z,23.67
2018-12-03T00:07:51.081Z,23.47
2018-12-03T00:08:25.351Z,25.55
2018-12-03T00:08:59.811Z,23.40
2018-12-03T00:09:33.903Z,24.12
2018-12-03T00:10:09.627Z,24.37
2018-12-03T00:10:43.719Z,24.20
2018-12-03T00:11:17.557Z,20.87
2018-12-03T00:11:51.993Z,23.83
2018-12-03T00:12:26.484Z,24.00
2018-12-03T00:13:00.571Z,26.57
2018-12-03T00:13:34.413Z,26.40
2018-12-03T00:14:08.924Z,25.68
2018-12-03T00:14:43.353Z,22.70
2018-12-03T00:15:17.463Z,28.55
2018-12-03T00:15:51.904Z,32.73
2018-12-03T00:16:26.108Z,29.43
2018-12-03T00:17:00.243Z,25.50
2018-12-03T00:17:34.066Z,25.70
2018-12-03T00:18:08.509Z,25.92
2018-12-03T00:18:42.344Z,26.27
2018-12-03T00:19:16.467Z,29.52
2018-12-03T00:19:50.306Z,24.53
2018-12-03T00:20:24.131Z,26.50
2018-12-03T00:20:58.595Z,25.92
2018-12-03T00:21:32.709Z,23.98
2018-12-03T00:22:06.859Z,24.30
2018-12-03T00:22:41.282Z,25.43
2018-12-03T00:23:15.110Z,25.20
2018-12-03T00:23:49.542Z,24.25
2018-12-03T00:24:23.672Z,25.82
2018-12-03T00:24:57.816Z,23.35
2018-12-03T00:25:31.947Z,23.73
2018-12-03T00:26:06.580Z,28.38
2018-12-03T00:26:40.651Z,21.65
2018-12-03T00:27:14.751Z,22.93
2018-12-03T00:27:52.000Z,26.30
2018-12-03T00:28:26.815Z,21.23
2018-12-03T00:29:01.613Z,23.70
2018-12-03T00:29:36.088Z,25.43
2018-12-03T00:30:10.411Z,26.80
2018-12-03T00:30:44.541Z,25.52
2018-12-03T00:31:18.337Z,27.77
2018-12-03T00:31:52.415Z,25.85
2018-12-03T00:32:26.522Z,22.65
2018-12-03T00:33:00.635Z,24.55
2018-12-03T00:33:34.713Z,25.20
2018-12-03T00:34:08.837Z,25.72
2018-12-03T00:34:42.933Z,24.40
2018-12-03T00:35:17.059Z,26.95
2018-12-03T00:35:51.217Z,25.60
2018-12-03T00:36:25.661Z,28.50
2018-12-03T00:36:59.756Z,24.90
2018-12-03T00:37:34.214Z,25.32
2018-12-03T00:38:08.305Z,23.60
2018-12-03T00:38:42.147Z,27.20
2018-12-03T00:39:16.016Z,26.37
2018-12-03T00:39:49.867Z,26.03
2018-12-03T00:40:23.954Z,25.10
2018-12-03T00:40:58.764Z,23.85
2018-12-03T00:41:32.828Z,23.32
2018-12-03T00:42:07.243Z,24.57
2018-12-03T00:42:41.347Z,26.25
2018-12-03T00:43:15.429Z,25.85
2018-12-03T00:43:49.543Z,27.13
2018-12-03T00:44:23.641Z,26.05
2018-12-03T00:44:57.783Z,22.50
2018-12-03T00:45:31.608Z,21.33
2018-12-03T00:46:05.800Z,21.48
2018-12-03T00:46:39.644Z,19.83
2018-12-03T00:47:13.463Z,20.17
2018-12-03T00:47:47.282Z,21.50
2018-12-03T00:48:21.393Z,20.23
2018-12-03T00:48:55.497Z,25.95
2018-12-03T00:49:29.615Z,22.40
2018-12-03T00:50:04.383Z,24.92
2018-12-03T00:50:38.851Z,20.55
2018-12-03T00:51:12.798Z,22.77
2018-12-03T00:51:46.909Z,18.35
2018-12-03T00:52:20.965Z,20.15
2018-12-03T00:52:55.076Z,19.40
2018-12-03T00:53:29.175Z,19.23
2018-12-03T00:54:03.608Z,19.60
2018-12-03T00:54:38.425Z,19.40
2018-12-03T00:55:13.843Z,21.23
2018-12-03T00:55:48.293Z,18.35
2018-12-03T00:56:22.407Z,18.55
2018-12-03T00:56:56.470Z,19.57
2018-12-03T00:57:30.585Z,17.15
2018-12-03T00:58:05.053Z,18.95
2018-12-03T00:58:39.186Z,20.37
2018-12-03T00:59:13.303Z,19.52
2018-12-03T00:59:47.419Z,19.15
2018-12-03T01:00:21.651Z,20.37
2018-12-03T01:00:55.783Z,20.75
2018-12-03T01:01:34.231Z,22.15
2018-12-03T01:02:13.663Z,19.93
2018-12-03T01:02:47.864Z,21.23
2018-12-03T01:03:22.373Z,19.83
2018-12-03T01:03:56.814Z,20.37
2018-12-03T01:04:30.951Z,21.07
2018-12-03T01:05:05.990Z,17.03
2018-12-03T01:05:40.189Z,18.40
2018-12-03T01:06:14.294Z,17.80
2018-12-03T01:06:48.451Z,16.17
2018-12-03T01:07:22.962Z,17.17
2018-12-03T01:07:57.069Z,19.52
2018-12-03T01:08:31.511Z,18.77
2018-12-03T01:09:08.207Z,18.25
2018-12-03T01:09:42.679Z,19.32
2018-12-03T01:10:17.151Z,17.73
2018-12-03T01:10:51.630Z,17.82
2018-12-03T01:11:25.754Z,17.98
2018-12-03T01:12:00.209Z,18.55
2018-12-03T01:12:34.318Z,16.15
2018-12-03T01:13:08.670Z,15.80
2018-12-03T01:13:42.751Z,15.98
2018-12-03T01:14:16.835Z,16.00
2018-12-03T01:14:50.965Z,13.68
2018-12-03T01:15:25.696Z,16.80
2018-12-03T01:16:00.169Z,15.85
2018-12-03T01:16:34.303Z,15.88
2018-12-03T01:17:08.444Z,14.13
2018-12-03T01:17:42.551Z,16.23
2018-12-03T01:18:17.000Z,16.00
2018-12-03T01:18:51.642Z,14.70
2018-12-03T01:19:26.075Z,17.27
2018-12-03T01:20:00.187Z,15.45
2018-12-03T01:20:34.286Z,13.40
2018-12-03T01:21:08.739Z,15.20
2018-12-03T01:21:42.549Z,16.43
2018-12-03T01:22:16.653Z,14.30
2018-12-03T01:22:50.811Z,14.93
2018-12-03T01:23:24.980Z,17.10
2018-12-03T01:23:59.156Z,15.20
2018-12-03T01:24:33.005Z,16.07
2018-12-03T01:25:07.562Z,19.27
2018-12-03T01:25:41.402Z,14.33
2018-12-03T01:26:15.243Z,17.63
2018-12-03T01:26:49.659Z,17.37
2018-12-03T01:27:23.476Z,16.50
2018-12-03T01:27:58.224Z,15.05
2018-12-03T01:28:32.075Z,15.93
2018-12-03T01:29:06.209Z,17.50
2018-12-03T01:29:40.657Z,16.00
2018-12-03T01:30:15.435Z,18.20
2018-12-03T01:30:49.588Z,18.30
2018-12-03T01:31:23.399Z,17.13
2018-12-03T01:31:57.224Z,19.07
2018-12-03T01:32:31.319Z,16.23
2018-12-03T01:33:05.532Z,17.07
2018-12-03T01:33:39.627Z,18.52
2018-12-03T01:34:13.724Z,18.55
2018-12-03T01:34:47.838Z,16.80
2018-12-03T01:35:22.273Z,16.32
2018-12-03T01:35:56.402Z,19.32
2018-12-03T01:36:30.500Z,16.23
2018-12-03T01:37:04.977Z,18.50
2018-12-03T01:37:39.076Z,17.85
2018-12-03T01:38:13.236Z,16.77
2018-12-03T01:38:47.369Z,16.42
2018-12-03T01:39:21.458Z,15.93
2018-12-03T01:39:55.540Z,17.40
2018-12-03T01:40:30.284Z,17.42
2018-12-03T01:41:04.628Z,14.47
2018-12-03T01:41:39.071Z,16.75
2018-12-03T01:42:13.270Z,15.13
2018-12-03T01:42:47.399Z,15.58
2018-12-03T01:43:21.844Z,15.35
2018-12-03T01:43:55.939Z,15.40
2018-12-03T01:44:30.033Z,18.50
2018-12-03T01:45:04.689Z,14.68
2018-12-03T01:45:38.781Z,17.90
2018-12-03T01:46:12.897Z,18.57
2018-12-03T01:46:46.988Z,14.30
2018-12-03T01:47:20.806Z,13.70
2018-12-03T01:47:54.625Z,19.17
2018-12-03T01:48:28.727Z,13.78
2018-12-03T01:49:03.192Z,15.08
2018-12-03T01:49:37.086Z,14.90
2018-12-03T01:50:13.384Z,15.40
2018-12-03T01:50:47.847Z,16.87
2018-12-03T01:51:22.030Z,16.67
2018-12-03T01:51:55.871Z,15.60
2018-12-03T01:52:29.690Z,16.60
2018-12-03T01:53:04.119Z,15.75
2018-12-03T01:53:38.253Z,17.53
2018-12-03T01:54:12.716Z,17.40
2018-12-03T01:54:46.862Z,16.07
2018-12-03T01:55:21.287Z,19.85
2018-12-03T01:55:55.458Z,20.97
2018-12-03T01:56:29.884Z,16.80
2018-12-03T01:57:04.002Z,16.55
2018-12-03T01:57:38.528Z,19.00
2018-12-03T01:58:12.653Z,15.95
2018-12-03T01:58:46.792Z,19.60
2018-12-03T01:59:20.879Z,18.70
2018-12-03T01:59:55.024Z,21.65
2018-12-03T02:00:29.456Z,18.35
2018-12-03T02:01:03.692Z,18.47
2018-12-03T02:01:38.173Z,20.90
2018-12-03T02:02:12.291Z,19.40
2018-12-03T02:02:46.427Z,23.05
2018-12-03T02:03:20.874Z,17.80
2018-12-03T02:03:55.310Z,20.20
2018-12-03T02:04:29.422Z,22.17
2018-12-03T02:05:03.922Z,20.88
2018-12-03T02:05:38.067Z,20.05
2018-12-03T02:06:12.545Z,22.48
2018-12-03T02:06:46.632Z,18.60
2018-12-03T02:07:21.263Z,23.95
2018-12-03T02:07:55.389Z,20.97
2018-12-03T02:08:29.823Z,21.82
2018-12-03T02:09:05.252Z,23.12
2018-12-03T02:09:39.390Z,22.20
2018-12-03T02:10:14.310Z,22.25
2018-12-03T02:10:48.784Z,23.67
2018-12-03T02:11:23.230Z,27.05
2018-12-03T02:11:57.383Z,22.42
2018-12-03T02:12:31.237Z,22.50
2018-12-03T02:13:05.605Z,22.73
2018-12-03T02:13:39.708Z,20.52
2018-12-03T02:14:13.806Z,21.55
2018-12-03T02:14:48.280Z,23.80
2018-12-03T02:15:22.401Z,26.70
2018-12-03T02:15:56.235Z,25.17
2018-12-03T02:16:30.187Z,24.70
2018-12-03T02:17:04.629Z,22.85
2018-12-03T02:17:38.623Z,20.60
2018-12-03T02:18:12.704Z,22.62
2018-12-03T02:18:46.841Z,23.77
2018-12-03T02:19:21.287Z,25.37
2018-12-03T02:19:55.415Z,24.02
2018-12-03T02:20:29.498Z,22.77
2018-12-03T02:21:03.600Z,25.05
2018-12-03T02:21:38.052Z,32.23
2018-12-03T02:22:11.884Z,24.90
2018-12-03T02:22:45.737Z,21.30
2018-12-03T02:23:19.905Z,22.10
2018-12-03T02:23:53.736Z,28.37
2018-12-03T02:24:27.875Z,25.17
2018-12-03T02:25:01.981Z,25.35
2018-12-03T02:25:36.104Z,25.92
2018-12-03T02:26:10.284Z,25.87
2018-12-03T02:26:44.779Z,25.75
2018-12-03T02:27:18.783Z,22.80
2018-12-03T02:27:52.622Z,26.00
2018-12-03T02:28:26.451Z,25.47
2018-12-03T02:29:00.288Z,23.97
2018-12-03T02:29:34.252Z,25.83
2018-12-03T02:30:13.176Z,28.07
2018-12-03T02:30:47.398Z,24.70
2018-12-03T02:31:21.508Z,25.05
2018-12-03T02:31:55.948Z,22.98
2018-12-03T02:32:29.799Z,25.50
2018-12-03T02:33:04.231Z,22.27
2018-12-03T02:33:38.379Z,28.73
2018-12-03T02:34:12.199Z,25.97
2018-12-03T02:34:46.032Z,28.50
2018-12-03T02:35:20.133Z,26.12
2018-12-03T02:35:54.235Z,26.70
2018-12-03T02:36:28.360Z,27.50
2018-12-03T02:37:02.208Z,25.40
2018-12-03T02:37:36.031Z,25.60
2018-12-03T02:38:10.128Z,27.35
2018-12-03T02:38:44.182Z,24.93
2018-12-03T02:39:18.292Z,23.50
2018-12-03T02:39:52.392Z,23.18
2018-12-03T02:40:26.235Z,23.30
2018-12-03T02:41:00.059Z,25.00
2018-12-03T02:41:34.143Z,30.12
2018-12-03T02:42:08.655Z,25.57
2018-12-03T02:42:42.768Z,23.73
2018-12-03T02:43:16.597Z,26.23
2018-12-03T02:43:50.704Z,25.77
2018-12-03T02:44:24.525Z,22.50
2018-12-03T02:44:58.485Z,24.50
2018-12-03T02:45:32.291Z,22.20
2018-12-03T02:46:06.547Z,24.43
2018-12-03T02:46:40.394Z,27.50
2018-12-03T02:47:14.828Z,26.62
2018-12-03T02:47:48.993Z,24.30
2018-12-03T02:48:23.087Z,25.48
2018-12-03T02:48:57.279Z,22.20
2018-12-03T02:49:31.703Z,23.80
2018-12-03T02:50:10.289Z,23.03
2018-12-03T02:50:44.103Z,24.70
2018-12-03T02:51:18.183Z,26.97
2018-12-03T02:51:52.024Z,21.47
2018-12-03T02:52:26.151Z,21.37
2018-12-03T02:53:00.310Z,24.17
2018-12-03T02:53:34.419Z,25.95
2018-12-03T02:54:08.515Z,23.27
2018-12-03T02:54:42.619Z,28.23
2018-12-03T02:55:16.435Z,28.50
2018-12-03T02:55:50.516Z,25.00
2018-12-03T02:56:24.965Z,25.35
2018-12-03T02:56:58.841Z,25.40
2018-12-03T02:57:32.912Z,24.77
2018-12-03T02:58:07.076Z,22.87
2018-12-03T02:58:40.887Z,21.90
2018-12-03T02:59:14.709Z,26.70
2018-12-03T02:59:49.496Z,23.77
2018-12-03T03:00:23.654Z,22.73
2018-12-03T03:00:58.403Z,23.57
2018-12-03T03:01:32.249Z,22.07
2018-12-03T03:02:06.997Z,23.80
2018-12-03T03:02:41.516Z,25.43
2018-12-03T03:03:16.164Z,23.73
2018-12-03T03:03:50.835Z,26.82
2018-12-03T03:04:24.671Z,27.70
2018-12-03T03:04:58.498Z,25.10
2018-12-03T03:05:32.605Z,25.88
2018-12-03T03:06:06.704Z,22.42
2018-12-03T03:06:40.548Z,25.70
2018-12-03T03:07:14.978Z,30.50
2018-12-03T03:07:48.896Z,24.83
2018-12-03T03:08:23.055Z,22.77
2018-12-03T03:08:57.150Z,26.45
2018-12-03T03:09:30.983Z,24.10
2018-12-03T03:10:08.113Z,24.92
2018-12-03T03:10:42.263Z,24.00
2018-12-03T03:11:16.095Z,22.87
2018-12-03T03:11:49.976Z,23.80
2018-12-03T03:12:24.047Z,26.70
2018-12-03T03:12:58.159Z,23.90
2018-12-03T03:13:32.243Z,25.12
2018-12-03T03:14:06.350Z,23.27
2018-12-03T03:14:40.177Z,23.53
2018-12-03T03:15:15.133Z,21.77
2018-12-03T03:15:49.231Z,25.82
2018-12-03T03:16:23.657Z,24.25
2018-12-03T03:16:58.148Z,29.87
2018-12-03T03:17:31.993Z,22.23
2018-12-03T03:18:06.029Z,24.23
2018-12-03T03:18:40.159Z,24.18
2018-12-03T03:19:14.328Z,25.70
2018-12-03T03:19:48.412Z,25.00
2018-12-03T03:20:22.491Z,28.55
2018-12-03T03:20:56.330Z,28.33
2018-12-03T03:21:30.415Z,26.82
2018-12-03T03:22:05.677Z,23.35
2018-12-03T03:22:39.868Z,27.20
2018-12-03T03:23:13.709Z,25.23
2018-12-03T03:23:47.812Z,25.30
2018-12-03T03:24:21.910Z,27.40
2018-12-03T03:24:56.337Z,24.87
2018-12-03T03:25:37.015Z,23.10
2018-12-03T03:26:11.140Z,28.07
2018-12-03T03:26:45.239Z,28.05
2018-12-03T03:27:19.331Z,28.12
2018-12-03T03:27:53.331Z,31.30
2018-12-03T03:28:27.445Z,26.50
2018-12-03T03:29:01.254Z,27.43
2018-12-03T03:29:35.119Z,31.33
2018-12-03T03:30:11.711Z,28.45
2018-12-03T03:30:45.905Z,28.07
2018-12-03T03:31:19.753Z,24.60
2018-12-03T03:31:53.782Z,30.93
2018-12-03T03:32:28.236Z,24.55
2018-12-03T03:33:02.060Z,27.13
2018-12-03T03:33:35.869Z,27.30
2018-12-03T03:34:10.435Z,32.42
2018-12-03T03:34:44.255Z,29.00
2018-12-03T03:35:18.103Z,25.43
2018-12-03T03:35:52.378Z,24.17
2018-12-03T03:36:26.232Z,24.60
2018-12-03T03:37:00.068Z,27.53
2018-12-03T03:37:33.934Z,23.83
2018-12-03T03:38:07.788Z,24.90
2018-12-03T03:38:42.941Z,28.10
2018-12-03T03:39:17.139Z,25.60
2018-12-03T03:39:51.248Z,27.17
2018-12-03T03:40:25.499Z,26.53
2018-12-03T03:40:59.363Z,26.30
2018-12-03T03:41:33.165Z,27.60
2018-12-03T03:42:07.000Z,22.00
2018-12-03T03:42:41.220Z,28.10
2018-12-03T03:43:15.893Z,23.80
2018-12-03T03:43:49.742Z,31.97
2018-12-03T03:44:23.568Z,28.37
2018-12-03T03:44:57.456Z,25.60
2018-12-03T03:45:31.288Z,26.20
2018-12-03T03:46:06.021Z,27.98
2018-12-03T03:46:40.120Z,32.40
2018-12-03T03:47:13.938Z,24.07
2018-12-03T03:47:48.071Z,28.17
2018-12-03T03:48:22.169Z,27.48
2018-12-03T03:48:56.277Z,24.85
2018-12-03T03:49:30.363Z,27.15
2018-12-03T03:50:05.111Z,24.27
2018-12-03T03:50:39.705Z,24.98
2018-12-03T03:51:13.533Z,24.37
2018-12-03T03:51:47.413Z,25.67
2018-12-03T03:52:21.759Z,29.73
2018-12-03T03:52:55.638Z,22.80
2018-12-03T03:53:29.723Z,24.90
2018-12-03T03:54:03.574Z,33.07
2018-12-03T03:54:37.400Z,33.33
2018-12-03T03:55:11.322Z,32.43
2018-12-03T03:55:45.697Z,27.30
2018-12-03T03:56:19.555Z,27.43
2018-12-03T03:56:53.424Z,33.50
2018-12-03T03:57:27.299Z,28.10
2018-12-03T03:58:01.535Z,27.33
2018-12-03T03:58:35.334Z,27.23
2018-12-03T03:59:09.165Z,28.23
2018-12-03T03:59:43.305Z,27.58
2018-12-03T04:00:17.479Z,29.23
2018-12-03T04:00:51.572Z,28.17
2018-12-03T04:01:25.681Z,26.60
2018-12-03T04:01:59.511Z,27.23
2018-12-03T04:02:33.749Z,28.00
2018-12-03T04:03:07.595Z,28.63
2018-12-03T04:03:42.047Z,24.18
2018-12-03T04:04:15.896Z,27.10
2018-12-03T04:04:50.076Z,27.45
2018-12-03T04:05:24.756Z,23.43
2018-12-03T04:05:58.924Z,26.13
2018-12-03T04:06:32.768Z,26.37
2018-12-03T04:07:06.868Z,25.00
2018-12-03T04:07:42.435Z,31.57
2018-12-03T04:08:17.339Z,24.52
2018-12-03T04:08:51.168Z,23.53
2018-12-03T04:09:25.278Z,25.20
2018-12-03T04:09:59.204Z,28.57
2018-12-03T04:10:33.026Z,29.17
2018-12-03T04:11:07.441Z,27.85
2018-12-03T04:11:41.330Z,26.07
2018-12-03T04:12:15.165Z,23.47
2018-12-03T04:12:49.061Z,27.23
2018-12-03T04:13:22.927Z,26.97
2018-12-03T04:13:56.991Z,25.90
2018-12-03T04:14:31.232Z,26.67
2018-12-03T04:15:06.845Z,29.13
2018-12-03T04:15:40.861Z,28.87
2018-12-03T04:16:14.951Z,23.60
2018-12-03T04:16:48.899Z,23.03
2018-12-03T04:17:22.909Z,30.00
2018-12-03T04:17:57.523Z,30.02
2018-12-03T04:18:31.317Z,28.80
2018-12-03T04:19:06.328Z,26.80
2018-12-03T04:19:40.239Z,25.73
2018-12-03T04:20:19.721Z,27.17
2018-12-03T04:20:53.568Z,25.73
2018-12-03T04:21:27.689Z,26.73
2018-12-03T04:22:01.568Z,25.97
2018-12-03T04:22:35.664Z,24.65
2018-12-03T04:23:10.098Z,31.85
2018-12-03T04:23:44.086Z,28.50
2018-12-03T04:24:18.238Z,23.42
2018-12-03T04:24:52.074Z,28.53
2018-12-03T04:25:25.888Z,24.53
2018-12-03T04:25:59.715Z,21.87
2018-12-03T04:26:33.589Z,24.73
2018-12-03T04:27:08.047Z,23.92
2018-12-03T04:27:42.341Z,25.08
2018-12-03T04:28:16.200Z,26.47
2018-12-03T04:28:50.018Z,26.27
2018-12-03T04:29:24.463Z,28.50
2018-12-03T04:29:58.287Z,25.60
2018-12-03T04:30:32.131Z,25.70
2018-12-03T04:31:05.971Z,23.73
2018-12-03T04:31:39.800Z,26.00
2018-12-03T04:32:13.969Z,27.27
2018-12-03T04:32:47.796Z,24.73
2018-12-03T04:33:21.982Z,24.87
2018-12-03T04:33:55.796Z,26.90
2018-12-03T04:34:29.621Z,27.17
2018-12-03T04:35:03.440Z,24.90
2018-12-03T04:35:37.362Z,27.23
2018-12-03T04:36:11.201Z,23.77
2018-12-03T04:36:45.737Z,23.90
2018-12-03T04:37:20.780Z,27.62
2018-12-03T04:37:53.675Z,24.60
2018-12-03T04:38:27.859Z,26.83
2018-12-03T04:39:01.682Z,30.30
2018-12-03T04:39:35.537Z,31.90
2018-12-03T04:40:11.595Z,24.20
2018-12-03T04:40:46.528Z,26.77
2018-12-03T04:41:20.624Z,25.82
2018-12-03T04:41:54.736Z,20.72
2018-12-03T04:42:28.828Z,26.27
2018-12-03T04:43:02.670Z,24.37
2018-12-03T04:43:36.702Z,23.90
2018-12-03T04:44:10.518Z,22.27
2018-12-03T04:44:44.347Z,23.50
2018-12-03T04:45:19.350Z,27.90
2018-12-03T04:45:53.288Z,22.43
2018-12-03T04:46:27.090Z,25.40
2018-12-03T04:47:00.983Z,23.33
2018-12-03T04:47:34.799Z,22.83
2018-12-03T04:48:08.642Z,26.97
2018-12-03T04:48:42.811Z,21.73
2018-12-03T04:49:16.624Z,22.00
2018-12-03T04:49:50.558Z,22.03
2018-12-03T04:50:24.380Z,20.37
2018-12-03T04:50:58.219Z,24.97
2018-12-03T04:51:32.331Z,19.20
2018-12-03T04:52:06.472Z,20.37
2018-12-03T04:52:40.645Z,23.50
2018-12-03T04:53:15.105Z,23.62
2018-12-03T04:53:48.935Z,20.03
2018-12-03T04:54:22.772Z,23.53
2018-12-03T04:54:56.612Z,24.17
2018-12-03T04:55:30.430Z,21.60
2018-12-03T04:56:05.218Z,20.43
2018-12-03T04:56:39.142Z,24.37
2018-12-03T04:57:12.975Z,22.90
2018-12-03T04:57:46.878Z,19.40
2018-12-03T04:58:21.028Z,25.02
2018-12-03T04:58:55.215Z,23.90
2018-12-03T04:59:29.329Z,19.20
2018-12-03T05:00:04.280Z,20.43
2018-12-03T05:00:38.885Z,18.52
2018-12-03T05:01:12.981Z,18.37
2018-12-03T05:01:47.423Z,24.82
2018-12-03T05:02:21.623Z,19.02
2018-12-03T05:02:55.751Z,20.55
2018-12-03T05:03:29.916Z,20.20
2018-12-03T05:04:04.095Z,21.03
2018-12-03T05:04:38.016Z,24.40
2018-12-03T05:05:11.880Z,20.40
2018-12-03T05:05:45.731Z,20.23
2018-12-03T05:06:19.919Z,19.87
2018-12-03T05:06:53.818Z,21.00
2018-12-03T05:07:27.642Z,22.27
2018-12-03T05:08:01.792Z,19.67
2018-12-03T05:08:35.915Z,19.65
2018-12-03T05:09:10.147Z,21.30
2018-12-03T05:09:43.980Z,23.53
2018-12-03T05:10:19.818Z,18.90
2018-12-03T05:10:53.647Z,21.70
2018-12-03T05:11:27.816Z,19.47
2018-12-03T05:12:01.647Z,20.50
2018-12-03T05:12:35.786Z,20.65
2018-12-03T05:13:09.929Z,20.35
2018-12-03T05:13:43.761Z,19.27
2018-12-03T05:14:17.863Z,18.90
2018-12-03T05:14:51.683Z,19.03
2018-12-03T05:15:25.495Z,23.77
2018-12-03T05:15:59.579Z,23.00
2018-12-03T05:16:34.024Z,23.57
2018-12-03T05:17:08.156Z,23.73
2018-12-03T05:17:42.997Z,20.67
2018-12-03T05:18:17.415Z,20.48
2018-12-03T05:18:52.230Z,17.15
2018-12-03T05:19:26.128Z,19.10
2018-12-03T05:20:00.263Z,17.52
2018-12-03T05:20:34.797Z,25.17
2018-12-03T05:21:08.655Z,18.17
2018-12-03T05:21:42.509Z,21.17
2018-12-03T05:22:16.714Z,17.63
2018-12-03T05:22:51.524Z,20.77
2018-12-03T05:23:25.630Z,18.35
2018-12-03T05:24:04.322Z,18.37
2018-12-03T05:24:33.985Z,15.88
2018-12-03T05:25:09.979Z,17.77
2018-12-03T05:25:44.417Z,20.15
2018-12-03T05:26:18.240Z,20.80
2018-12-03T05:26:52.061Z,20.23
2018-12-03T05:27:25.871Z,16.63
2018-12-03T05:27:59.696Z,15.97
2018-12-03T05:28:33.791Z,24.95
2018-12-03T05:29:07.648Z,17.70
2018-12-03T05:29:41.791Z,17.83
2018-12-03T05:30:16.653Z,13.95
2018-12-03T05:30:51.413Z,22.20
2018-12-03T05:31:25.521Z,17.90
2018-12-03T05:31:59.400Z,19.40
2018-12-03T05:32:33.536Z,20.48
2018-12-03T05:33:07.377Z,16.73
2018-12-03T05:33:41.539Z,18.77
2018-12-03T05:34:15.696Z,16.15
2018-12-03T05:34:50.123Z,17.67
2018-12-03T05:35:28.774Z,19.77
2018-12-03T05:36:02.869Z,21.25
2018-12-03T05:36:36.741Z,19.37
2018-12-03T05:37:10.556Z,24.67
2018-12-03T05:37:44.757Z,21.60
2018-12-03T05:38:18.580Z,15.77
2018-12-03T05:38:52.775Z,18.50
2018-12-03T05:39:26.935Z,17.50
2018-12-03T05:40:00.793Z,16.53
2018-12-03T05:40:34.904Z,17.32
2018-12-03T05:41:09.032Z,18.48
2018-12-03T05:41:42.857Z,17.20
2018-12-03T05:42:17.066Z,19.43
2018-12-03T05:42:51.428Z,20.33
2018-12-03T05:43:25.515Z,19.37
2018-12-03T05:43:59.628Z,16.37
2018-12-03T05:44:33.473Z,20.50
2018-12-03T05:45:08.819Z,21.70
2018-12-03T05:45:42.915Z,16.93
2018-12-03T05:46:17.375Z,18.15
2018-12-03T05:46:51.270Z,18.00
2018-12-03T05:47:25.412Z,19.50
2018-12-03T05:47:59.253Z,16.87
2018-12-03T05:48:33.081Z,18.17
2018-12-03T05:49:07.240Z,17.50
2018-12-03T05:49:41.205Z,19.10
2018-12-03T05:50:15.721Z,17.37
2018-12-03T05:50:49.555Z,17.80
2018-12-03T05:51:23.724Z,23.77
2018-12-03T05:51:57.555Z,15.03
2018-12-03T05:52:31.677Z,17.37
2018-12-03T05:53:06.163Z,17.15
2018-12-03T05:53:40.353Z,17.30
2018-12-03T05:54:14.668Z,20.57
2018-12-03T05:54:48.877Z,18.70
2018-12-03T05:55:22.970Z,15.05
2018-12-03T05:55:57.135Z,18.77
2018-12-03T05:56:31.257Z,20.20
2018-12-03T05:57:05.083Z,15.87
2018-12-03T05:57:39.211Z,20.32
2018-12-03T05:58:13.315Z,18.73
2018-12-03T05:58:47.470Z,16.85
2018-12-03T05:59:21.591Z,21.35
2018-12-03T05:59:55.716Z,20.20
2018-12-03T06:00:29.924Z,19.07
2018-12-03T06:01:04.074Z,16.43
2018-12-03T06:01:38.012Z,18.30
2018-12-03T06:02:12.180Z,17.20
2018-12-03T06:02:46.957Z,23.95
2018-12-03T06:03:21.055Z,16.15
2018-12-03T06:03:55.517Z,18.17
2018-12-03T06:04:29.652Z,15.03
2018-12-03T06:05:03.509Z,22.90
2018-12-03T06:05:37.636Z,18.20
2018-12-03T06:06:11.848Z,16.00
2018-12-03T06:06:46.012Z,15.30
2018-12-03T06:07:20.126Z,17.17
2018-12-03T06:07:54.301Z,15.00
2018-12-03T06:08:28.134Z,19.83
2018-12-03T06:09:02.233Z,21.65
2018-12-03T06:09:36.352Z,18.05
2018-12-03T06:10:16.628Z,17.20
2018-12-03T06:10:50.467Z,23.60
2018-12-03T06:11:24.295Z,22.27
2018-12-03T06:11:58.134Z,18.87
2018-12-03T06:12:32.300Z,22.90
2018-12-03T06:13:06.635Z,19.07
2018-12-03T06:13:40.762Z,19.82
2018-12-03T06:14:14.864Z,20.95
2018-12-03T06:14:49.079Z,23.27
2018-12-03T06:15:23.518Z,21.20
2018-12-03T06:15:57.697Z,20.97
2018-12-03T06:16:31.868Z,19.00
2018-12-03T06:17:05.874Z,19.50
2018-12-03T06:17:39.870Z,25.70
2018-12-03T06:18:13.992Z,19.15
2018-12-03T06:18:47.825Z,22.07
2018-12-03T06:19:22.010Z,20.52
2018-12-03T06:19:55.854Z,22.30
2018-12-03T06:20:30.052Z,20.37
2018-12-03T06:21:04.492Z,23.80
2018-12-03T06:21:38.611Z,21.57
2018-12-03T06:22:12.728Z,21.17
2018-12-03T06:22:47.344Z,24.20
2018-12-03T06:23:21.168Z,21.43
2018-12-03T06:23:55.279Z,27.62
2018-12-03T06:24:29.148Z,26.83
2018-12-03T06:25:03.635Z,20.27
2018-12-03T06:25:37.861Z,19.67
2018-12-03T06:26:11.664Z,21.37
2018-12-03T06:26:45.500Z,24.93
2018-12-03T06:27:19.368Z,20.37
2018-12-03T06:27:53.527Z,21.43
2018-12-03T06:28:27.392Z,24.40
2018-12-03T06:29:01.596Z,22.43
2018-12-03T06:29:35.711Z,19.85
2018-12-03T06:30:12.390Z,21.37
2018-12-03T06:30:46.264Z,23.00
2018-12-03T06:31:20.364Z,21.85
2018-12-03T06:31:54.476Z,21.02
2018-12-03T06:32:28.608Z,25.57
2018-12-03T06:33:02.444Z,22.07
2018-12-03T06:33:36.674Z,24.90
2018-12-03T06:34:10.490Z,29.20
2018-12-03T06:34:44.332Z,21.77
2018-12-03T06:35:18.892Z,20.85
2018-12-03T06:35:53.003Z,22.27
2018-12-03T06:36:27.540Z,26.23
2018-12-03T06:37:01.363Z,27.10
2018-12-03T06:37:35.203Z,24.20
2018-12-03T06:38:09.034Z,23.60
2018-12-03T06:38:43.148Z,28.90
2018-12-03T06:39:17.005Z,25.83
2018-12-03T06:39:51.468Z,22.95
2018-12-03T06:40:28.342Z,23.60
2018-12-03T06:41:02.478Z,26.40
2018-12-03T06:41:36.598Z,25.90
2018-12-03T06:42:10.778Z,22.20
2018-12-03T06:42:45.312Z,28.00
2018-12-03T06:43:19.120Z,23.97
2018-12-03T06:43:52.966Z,26.63
2018-12-03T06:44:27.083Z,26.25
2018-12-03T06:45:00.927Z,28.50
2018-12-03T06:45:35.319Z,25.72
2018-12-03T06:46:09.410Z,22.93
2018-12-03T06:46:43.539Z,24.52
2018-12-03T06:47:17.652Z,27.80
2018-12-03T06:47:57.133Z,29.20
2018-12-03T06:48:31.012Z,29.90
2018-12-03T06:49:05.223Z,36.83
2018-12-03T06:49:40.304Z,24.90
2018-12-03T06:50:13.116Z,28.40
2018-12-03T06:50:46.991Z,25.80
2018-12-03T06:51:20.828Z,27.50
2018-12-03T06:51:54.646Z,30.77
2018-12-03T06:52:28.493Z,25.23
2018-12-03T06:53:02.913Z,25.17
2018-12-03T06:53:36.761Z,26.03
2018-12-03T06:54:10.858Z,25.88
2018-12-03T06:54:44.685Z,28.90
2018-12-03T06:55:18.527Z,27.50
2018-12-03T06:55:53.494Z,27.67
2018-12-03T06:56:27.335Z,27.40
2018-12-03T06:57:01.587Z,28.63
2018-12-03T06:57:35.772Z,31.77
2018-12-03T06:58:09.888Z,26.70
2018-12-03T06:58:43.720Z,26.03
2018-12-03T06:59:17.572Z,23.63
2018-12-03T06:59:51.375Z,25.40
2018-12-03T07:00:25.845Z,30.33
2018-12-03T07:00:59.700Z,28.10
2018-12-03T07:01:33.852Z,34.40
2018-12-03T07:02:08.023Z,26.57
2018-12-03T07:02:42.723Z,28.93
2018-12-03T07:03:17.530Z,29.07
2018-12-03T07:03:51.723Z,27.90
2018-12-03T07:04:25.906Z,31.23
2018-12-03T07:05:00.079Z,23.77
2018-12-03T07:05:34.213Z,28.05
2018-12-03T07:06:08.512Z,27.33
2018-12-03T07:06:42.680Z,25.80
2018-12-03T07:07:16.805Z,25.40
2018-12-03T07:07:52.106Z,24.97
2018-12-03T07:08:25.943Z,28.00
2018-12-03T07:09:00.042Z,22.25
2018-12-03T07:09:34.152Z,30.15
2018-12-03T07:10:13.291Z,31.62
2018-12-03T07:10:47.465Z,29.80
2018-12-03T07:11:21.510Z,24.03
2018-12-03T07:11:55.369Z,28.73
2018-12-03T07:12:29.238Z,31.10
2018-12-03T07:13:06.511Z,34.73
2018-12-03T07:13:40.316Z,32.03
2018-12-03T07:14:14.148Z,31.20
2018-12-03T07:14:48.019Z,24.90
2018-12-03T07:15:22.707Z,29.80
2018-12-03T07:15:57.422Z,33.30
2018-12-03T07:16:31.241Z,28.40
2018-12-03T07:17:05.819Z,26.57
2018-12-03T07:17:39.645Z,29.90
2018-12-03T07:18:14.639Z,25.43
2018-12-03T07:18:48.715Z,30.48
2018-12-03T07:19:22.903Z,27.80
2018-12-03T07:19:57.225Z,37.95
2018-12-03T07:20:31.063Z,28.53
2018-12-03T07:21:06.320Z,28.00
2018-12-03T07:21:40.778Z,28.60
2018-12-03T07:22:14.923Z,31.20